createdAt,value
2022-11-14T00:07:55.365Z,13.70
2022-11-14T00:13:30.995Z,13.80
2022-11-14T00:18:52.864Z,13.80
2022-11-14T00:24:13.866Z,13.80
2022-11-14T00:29:35.205Z,13.80
2022-11-14T00:34:55.840Z,13.80
2022-11-14T00:40:16.955Z,13.80
2022-11-14T00:45:38.056Z,13.80
2022-11-14T00:50:58.956Z,13.90
2022-11-14T00:56:21.759Z,13.80
2022-11-14T01:01:42.591Z,13.80
2022-11-14T01:07:03.479Z,13.80
2022-11-14T01:12:24.276Z,13.80
2022-11-14T01:17:45.244Z,13.70
2022-11-14T01:23:09.020Z,13.70
2022-11-14T01:28:29.912Z,13.70
2022-11-14T01:33:54.957Z,13.70
2022-11-14T01:39:15.710Z,13.70
2022-11-14T01:44:49.914Z,13.70
2022-11-14T01:50:10.745Z,13.70
2022-11-14T01:55:32.506Z,13.70
2022-11-14T02:00:54.022Z,13.70
2022-11-14T02:06:19.577Z,13.70
2022-11-14T02:11:45.559Z,13.70
2022-11-14T02:22:46.824Z,13.70
2022-11-14T02:28:09.610Z,13.70
2022-11-14T02:33:30.613Z,13.70
2022-11-14T02:38:52.159Z,13.70
2022-11-14T02:44:12.858Z,13.70
2022-11-14T02:49:34.083Z,13.70
2022-11-14T02:54:54.962Z,13.70
2022-11-14T03:00:16.405Z,13.70
2022-11-14T03:05:38.191Z,13.80
2022-11-14T03:11:05.142Z,13.80
2022-11-14T03:16:26.004Z,13.90
2022-11-14T03:21:46.819Z,13.90
2022-11-14T03:27:07.535Z,13.90
2022-11-14T03:32:28.207Z,14.00
2022-11-14T03:37:56.208Z,13.90
2022-11-14T03:43:18.764Z,13.90
2022-11-14T03:48:39.775Z,13.90
2022-11-14T03:54:00.741Z,13.90
2022-11-14T03:59:21.853Z,13.80
2022-11-14T04:04:42.421Z,13.80
2022-11-14T04:10:03.623Z,13.80
2022-11-14T04:15:24.797Z,13.80
2022-11-14T04:20:48.119Z,13.70
2022-11-14T04:26:10.936Z,13.70
2022-11-14T04:31:34.827Z,13.70
2022-11-14T04:37:10.320Z,13.70
2022-11-14T04:42:38.430Z,13.60
2022-11-14T04:48:19.058Z,13.60
2022-11-14T04:53:51.110Z,13.60
2022-11-14T04:59:20.653Z,13.60
2022-11-14T05:04:48.883Z,13.60
2022-11-14T05:10:11.247Z,13.60
2022-11-14T05:15:32.438Z,13.60
2022-11-14T05:20:53.548Z,13.60
2022-11-14T05:26:17.189Z,13.60
2022-11-14T05:31:46.079Z,13.60
2022-11-14T05:37:17.521Z,13.60
2022-11-14T05:42:47.484Z,13.60
2022-11-14T05:48:08.623Z,13.60
2022-11-14T05:53:35.068Z,13.40
2022-11-14T05:58:59.890Z,13.30
2022-11-14T06:04:22.355Z,13.10
2022-11-14T06:09:53.473Z,13.10
2022-11-14T06:15:17.392Z,13.00
2022-11-14T07:10:12.860Z,11.50
2022-11-14T07:15:53.126Z,11.30
2022-11-14T07:21:21.214Z,11.10
2022-11-14T07:26:46.427Z,11.20
2022-11-14T07:32:11.224Z,11.20
2022-11-14T07:37:40.947Z,11.30
2022-11-14T07:43:06.152Z,11.30
2022-11-14T07:48:29.727Z,11.30
2022-11-14T07:53:54.495Z,11.30
2022-11-14T07:59:22.139Z,11.30
2022-11-14T08:04:54.236Z,11.30
2022-11-14T08:10:20.396Z,11.40
2022-11-14T08:15:46.251Z,11.40
2022-11-14T08:21:19.132Z,11.50
2022-11-14T08:26:48.099Z,11.50
2022-11-14T08:32:17.041Z,11.50
2022-11-14T08:37:39.688Z,11.50
2022-11-14T08:43:06.592Z,11.50
2022-11-14T08:48:39.633Z,11.40
2022-11-14T08:54:05.868Z,11.30
2022-11-14T08:59:30.425Z,11.30
2022-11-14T09:04:52.303Z,11.40
2022-11-14T09:10:16.941Z,11.40
2022-11-14T09:15:38.266Z,11.40
2022-11-14T09:21:06.737Z,11.50
2022-11-14T09:26:28.635Z,11.70
2022-11-14T09:31:53.262Z,11.70
2022-11-14T09:37:15.309Z,11.70
2022-11-14T09:43:13.052Z,11.70
2022-11-14T09:48:33.954Z,11.60
2022-11-14T09:54:15.908Z,11.60
2022-11-14T09:59:36.622Z,11.70
2022-11-14T10:05:17.227Z,11.80
2022-11-14T10:10:59.595Z,12.00
2022-11-14T10:16:42.584Z,12.10
2022-11-14T10:22:28.422Z,12.10
2022-11-14T10:28:22.111Z,12.30
2022-11-14T10:34:12.721Z,12.20
2022-11-14T10:39:45.947Z,12.10
2022-11-14T10:45:11.262Z,12.20
2022-11-14T10:50:45.739Z,12.50
2022-11-14T10:56:06.525Z,12.50
2022-11-14T11:01:57.239Z,12.50
2022-11-14T11:13:35.901Z,12.60
2022-11-14T11:19:26.272Z,12.90
2022-11-14T11:25:28.222Z,12.80
2022-11-14T11:37:21.045Z,13.10
2022-11-14T11:49:50.108Z,12.90
2022-11-14T11:56:34.817Z,12.60
2022-11-14T12:02:42.244Z,12.90
2022-11-14T12:15:17.013Z,13.10
2022-11-14T12:21:04.511Z,13.20
2022-11-14T12:27:05.189Z,13.10
2022-11-14T12:33:14.524Z,12.90
2022-11-14T12:39:03.748Z,12.70
2022-11-14T12:44:35.651Z,12.60
2022-11-14T12:50:00.835Z,12.80
2022-11-14T13:07:38.979Z,13.20
2022-11-14T13:13:28.894Z,13.30
2022-11-14T13:19:33.083Z,13.30
2022-11-14T13:25:24.046Z,13.20
2022-11-14T13:31:07.385Z,12.90
2022-11-14T13:36:58.766Z,13.10
2022-11-14T13:42:45.614Z,13.20
2022-11-14T13:48:31.188Z,13.10
2022-11-14T13:53:52.407Z,13.20
2022-11-14T13:59:55.389Z,13.20
2022-11-14T14:05:46.199Z,13.30
2022-11-14T14:12:04.387Z,13.30
2022-11-14T14:18:03.288Z,13.10
2022-11-14T14:29:42.914Z,13.40
2022-11-14T14:35:40.647Z,13.40
2022-11-14T14:41:05.584Z,13.20
2022-11-14T14:46:33.357Z,13.10
2022-11-14T14:52:02.488Z,13.20
2022-11-14T14:57:25.227Z,13.00
2022-11-14T15:02:46.306Z,13.00
2022-11-14T15:08:12.824Z,13.00
2022-11-14T15:13:35.395Z,12.90
2022-11-14T15:18:58.143Z,12.90
2022-11-14T15:24:23.705Z,12.90
2022-11-14T15:29:48.736Z,12.80
2022-11-14T15:35:25.727Z,12.70
2022-11-14T15:41:19.631Z,12.70
2022-11-14T15:46:57.890Z,12.60
2022-11-14T15:52:41.606Z,12.40
2022-11-14T16:03:51.693Z,12.20
2022-11-14T16:09:18.397Z,12.00
2022-11-14T16:14:40.473Z,11.80
2022-11-14T16:20:06.589Z,11.80
2022-11-14T16:25:35.869Z,11.70
2022-11-14T16:30:56.689Z,11.60
2022-11-14T16:36:22.238Z,11.50
2022-11-14T16:41:45.043Z,11.40
2022-11-14T16:47:06.813Z,11.20
2022-11-14T16:52:27.499Z,11.10
2022-11-14T16:57:51.521Z,10.90
2022-11-14T17:03:13.840Z,10.80
2022-11-14T17:08:34.692Z,10.70
2022-11-14T17:13:57.004Z,10.70
2022-11-14T17:19:18.025Z,10.70
2022-11-14T17:24:41.302Z,10.70
2022-11-14T17:30:05.202Z,10.70
2022-11-14T17:35:26.017Z,10.70
2022-11-14T17:40:46.685Z,10.70
2022-11-14T17:46:15.644Z,10.70
2022-11-14T17:51:37.232Z,10.70
2022-11-14T17:56:59.401Z,10.80
2022-11-14T18:02:22.395Z,10.80
2022-11-14T18:07:44.949Z,11.10
2022-11-14T18:13:15.929Z,11.30
2022-11-14T18:18:39.935Z,11.50
2022-11-14T18:24:01.972Z,11.60
2022-11-14T18:29:22.863Z,11.70
2022-11-14T18:34:46.844Z,11.70
2022-11-14T18:40:13.397Z,11.80
2022-11-14T18:45:37.545Z,11.80
2022-11-14T18:51:06.735Z,11.80
2022-11-14T18:56:27.588Z,11.90
2022-11-14T19:01:48.194Z,11.80
2022-11-14T19:07:12.476Z,11.90
2022-11-14T19:12:36.314Z,11.80
2022-11-14T19:17:57.095Z,11.60
2022-11-14T19:23:18.796Z,11.40
2022-11-14T19:28:50.301Z,11.30
2022-11-14T19:34:11.036Z,11.20
2022-11-14T19:39:32.933Z,11.10
2022-11-14T19:44:53.720Z,11.10
2022-11-14T19:50:15.974Z,11.20
2022-11-14T19:55:37.332Z,11.30
2022-11-14T20:01:07.162Z,11.40
2022-11-14T20:06:31.976Z,11.40
2022-11-14T20:11:57.007Z,11.50
2022-11-14T20:17:18.775Z,11.50
2022-11-14T20:22:39.659Z,11.60
2022-11-14T20:28:00.211Z,11.80
2022-11-14T20:33:21.417Z,11.80
2022-11-14T20:38:44.075Z,11.80
2022-11-14T20:44:04.979Z,11.80
2022-11-14T20:49:26.606Z,11.90
2022-11-14T20:54:47.179Z,11.90
2022-11-14T21:00:08.492Z,11.90
2022-11-14T21:05:29.243Z,11.90
2022-11-14T21:10:57.510Z,12.00
2022-11-14T21:16:28.501Z,12.00
2022-11-14T21:21:52.344Z,12.10
2022-11-14T21:27:14.251Z,12.10
2022-11-14T21:32:36.339Z,12.20
2022-11-14T21:37:56.865Z,12.20
2022-11-14T21:43:19.015Z,12.30
2022-11-14T21:48:41.692Z,12.30
2022-11-14T21:54:06.542Z,12.20
2022-11-14T21:59:29.038Z,12.10
2022-11-14T22:04:53.576Z,12.10
2022-11-14T22:10:14.571Z,12.00
2022-11-14T22:15:36.517Z,11.90
2022-11-14T22:20:59.671Z,11.90
2022-11-14T22:26:21.085Z,11.80
2022-11-14T22:31:41.997Z,11.80
2022-11-14T22:37:04.622Z,11.90
2022-11-14T22:42:26.251Z,12.00
2022-11-14T22:47:47.041Z,12.10
2022-11-14T22:53:09.648Z,12.10
2022-11-14T22:58:33.896Z,12.20
2022-11-14T23:03:57.716Z,12.30
2022-11-14T23:09:19.037Z,12.30
2022-11-14T23:14:39.864Z,12.30
2022-11-14T23:20:02.070Z,12.40
2022-11-14T23:25:24.363Z,12.40
2022-11-14T23:30:51.386Z,12.40
2022-11-14T23:36:12.917Z,12.40
2022-11-14T23:41:33.965Z,12.50
2022-11-14T23:46:54.901Z,12.50
2022-11-14T23:52:17.225Z,12.40
2022-11-14T23:57:38.088Z,12.40
